Time;durP1;ratioP1;P1;durP2;ratioP2;P2;SDS_P1;SDS_P2;PMS_P1;PMS_P2;Temp;Humidity;BMP_temperature;BMP_pressure;BME280_temperature;BME280_humidity;BME280_pressure;Samples;Min_cycle;Max_cycle;Signal;HPM_P1;HPM_P2
2022/09/09 00:02:17;;;;;;;8.27;5.07;;;14.20;99.90;;;;;;5135163;27;20125;-67
2022/09/09 00:04:55;;;;;;;6.65;4.28;;;14.10;99.90;;;;;;5133982;27;20469;-67
2022/09/09 00:07:39;;;;;;;7.53;4.82;;;14.10;99.90;;;;;;5133452;27;20112;-66
2022/09/09 00:10:24;;;;;;;5.70;4.57;;;14.00;99.90;;;;;;5133366;27;20039;-66
2022/09/09 00:12:57;;;;;;;9.77;5.28;;;14.00;99.90;;;;;;5133464;27;20042;-67
2022/09/09 00:15:43;;;;;;;7.70;4.78;;;14.00;99.90;;;;;;5133287;27;20073;-66
2022/09/09 00:18:46;;;;;;;9.18;5.22;;;14.00;99.90;;;;;;5133317;27;20035;-67
2022/09/09 00:21:15;;;;;;;7.38;5.00;;;14.00;99.90;;;;;;5133219;27;20137;-65
2022/09/09 00:24:08;;;;;;;8.15;5.35;;;14.00;99.90;;;;;;5116032;27;20054;-66
2022/09/09 00:26:50;;;;;;;7.72;5.40;;;14.00;99.90;;;;;;5133313;27;20049;-64
2022/09/09 00:29:32;;;;;;;8.35;5.32;;;14.00;99.90;;;;;;5133352;27;20830;-66
2022/09/09 00:32:11;;;;;;;7.68;5.28;;;14.00;99.90;;;;;;5133337;27;20050;-67
2022/09/09 00:34:44;;;;;;;6.15;5.03;;;14.00;99.90;;;;;;5133017;27;20031;-66
2022/09/09 00:37:10;;;;;;;9.85;5.88;;;14.10;99.90;;;;;;5133028;27;20035;-65
2022/09/09 00:39:42;;;;;;;9.23;6.03;;;14.00;99.90;;;;;;5132786;27;20389;-66
2022/09/09 00:42:20;;;;;;;9.55;5.50;;;14.10;99.90;;;;;;5132851;27;20057;-67
2022/09/09 00:44:51;;;;;;;7.05;5.57;;;14.10;99.90;;;;;;5133080;27;20106;-67
2022/09/09 00:47:43;;;;;;;7.18;5.30;;;14.10;99.90;;;;;;5132776;27;20050;-65
2022/09/09 00:50:29;;;;;;;8.55;5.78;;;14.20;99.90;;;;;;5132968;27;20524;-67
2022/09/09 00:52:55;;;;;;;7.43;5.20;;;14.20;99.90;;;;;;5133031;27;20122;-66
2022/09/09 00:55:28;;;;;;;7.18;5.55;;;14.30;99.90;;;;;;5132785;27;20118;-65
2022/09/09 00:57:55;;;;;;;7.97;5.38;;;14.30;99.90;;;;;;5132914;27;20039;-66
2022/09/09 01:00:26;;;;;;;9.73;5.50;;;14.30;99.90;;;;;;5133892;27;20039;-67
2022/09/09 01:03:20;;;;;;;10.43;5.78;;;14.30;99.90;;;;;;5132790;27;20035;-66
2022/09/09 01:06:00;;;;;;;9.18;5.20;;;14.40;99.90;;;;;;5132490;27;20039;-67
2022/09/09 01:08:53;;;;;;;10.10;5.70;;;14.30;99.90;;;;;;5132682;27;20074;-67
2022/09/09 01:11:26;;;;;;;9.18;5.43;;;14.30;99.90;;;;;;5132669;27;20042;-64
2022/09/09 01:14:42;;;;;;;7.82;5.45;;;14.30;99.90;;;;;;5132583;27;20039;-66
2022/09/09 01:17:34;;;;;;;8.98;5.18;;;14.30;99.90;;;;;;5033697;28;20450;-65
2022/09/09 01:20:16;;;;;;;6.93;5.10;;;14.30;99.90;;;;;;5008365;28;20519;-66
2022/09/09 01:22:42;;;;;;;;;;;14.30;99.90;;;;;;5030757;28;20079;-66
2022/09/09 01:25:19;;;;;;;9.15;5.03;;;14.30;99.90;;;;;;5013800;28;19917;-67
2022/09/09 01:27:48;;;;;;;8.98;5.30;;;14.30;99.90;;;;;;4997213;28;20041;-67
2022/09/09 01:30:17;;;;;;;7.22;5.15;;;14.30;99.90;;;;;;5014012;28;20163;-67
2022/09/09 01:32:45;;;;;;;8.00;5.43;;;14.30;99.90;;;;;;5027520;28;20040;-67
2022/09/09 01:35:19;;;;;;;11.45;5.35;;;14.30;99.90;;;;;;5013575;28;20482;-66
2022/09/09 01:37:45;;;;;;;8.88;5.70;;;14.40;99.90;;;;;;4995031;28;20056;-67
2022/09/09 01:40:11;;;;;;;8.80;5.75;;;14.40;99.90;;;;;;5029904;28;20038;-67
2022/09/09 01:42:36;;;;;;;8.98;5.63;;;14.40;99.90;;;;;;4997116;28;20064;-67
2022/09/09 01:45:03;;;;;;;9.32;5.63;;;14.40;99.90;;;;;;5029904;28;20040;-67
2022/09/09 01:47:29;;;;;;;9.63;5.75;;;14.50;99.90;;;;;;5052220;28;20048;-68
2022/09/09 01:49:55;;;;;;;9.13;5.45;;;14.40;99.90;;;;;;5112703;28;20439;-68
2022/09/09 01:52:21;;;;;;;7.60;5.63;;;14.40;99.90;;;;;;5128367;27;20046;-65
2022/09/09 01:54:46;;;;;;;13.70;5.70;;;14.50;99.90;;;;;;5108652;28;20031;-66
2022/09/09 01:57:27;;;;;;;10.65;5.85;;;14.50;99.90;;;;;;5126938;27;20092;-65
2022/09/09 01:59:56;;;;;;;7.18;5.80;;;14.60;99.90;;;;;;5131790;27;20393;-66
2022/09/09 02:02:33;;;;;;;12.68;5.70;;;14.50;99.90;;;;;;5131762;27;20447;-69
2022/09/09 02:05:16;;;;;;;8.90;5.95;;;14.50;99.90;;;;;;5131782;27;20750;-64
2022/09/09 02:07:49;;;;;;;7.63;5.63;;;14.50;99.90;;;;;;5131721;27;20149;-68
2022/09/09 02:10:37;;;;;;;7.05;4.80;;;14.50;99.90;;;;;;5114193;27;20130;-67
2022/09/09 02:13:30;;;;;;;7.88;5.40;;;14.50;99.90;;;;;;5114277;27;20031;-66
2022/09/09 02:16:05;;;;;;;12.05;5.70;;;14.50;99.90;;;;;;5127556;27;20047;-67
2022/09/09 02:18:55;;;;;;;9.90;5.10;;;14.50;99.90;;;;;;5113455;27;20051;-68
2022/09/09 02:21:22;;;;;;;7.22;5.18;;;14.40;99.90;;;;;;5130525;27;20039;-68
2022/09/09 02:23:51;;;;;;;9.98;6.07;;;14.50;99.90;;;;;;5131328;27;20427;-66
2022/09/09 02:26:21;;;;;;;10.48;5.95;;;14.50;99.90;;;;;;5114151;27;20023;-69
2022/09/09 02:28:52;;;;;;;7.75;5.38;;;14.40;99.90;;;;;;5130942;27;20065;-65
2022/09/09 02:31:20;;;;;;;10.88;6.75;;;14.50;99.90;;;;;;5131520;27;20039;-64
2022/09/09 02:33:54;;;;;;;7.28;5.22;;;14.40;99.90;;;;;;5113415;27;20054;-67
2022/09/09 02:36:22;;;;;;;11.90;6.18;;;14.50;99.90;;;;;;5131187;27;20039;-67
2022/09/09 02:38:50;;;;;;;7.63;5.53;;;14.50;99.90;;;;;;5130703;27;20042;-66
2022/09/09 02:41:21;;;;;;;9.93;5.25;;;14.50;99.90;;;;;;5131169;27;20043;-66
2022/09/09 02:43:47;;;;;;;7.40;5.72;;;14.50;99.90;;;;;;5130695;27;20046;-68
2022/09/09 02:46:21;;;;;;;7.38;5.15;;;14.50;99.90;;;;;;5130901;27;20039;-68
2022/09/09 02:48:56;;;;;;;5.78;5.18;;;14.50;99.90;;;;;;5130027;28;20051;-66
2022/09/09 02:51:31;;;;;;;7.28;5.32;;;14.50;99.90;;;;;;5130269;27;20045;-66
2022/09/09 02:54:08;;;;;;;11.02;5.60;;;14.50;99.90;;;;;;5129714;28;20038;-67
2022/09/09 02:56:40;;;;;;;8.35;4.93;;;14.50;99.90;;;;;;5129865;28;20483;-68
2022/09/09 02:59:05;;;;;;;10.88;5.22;;;14.50;99.90;;;;;;5129878;28;20039;-67
2022/09/09 03:01:31;;;;;;;8.20;5.15;;;14.50;99.90;;;;;;5130074;27;20088;-66
2022/09/09 03:03:57;;;;;;;9.70;5.45;;;14.50;99.90;;;;;;5129768;27;20123;-66
2022/09/09 03:06:23;;;;;;;8.93;5.30;;;14.50;99.90;;;;;;5129680;28;20035;-67
2022/09/09 03:08:49;;;;;;;7.35;5.35;;;14.50;99.90;;;;;;5129613;27;20459;-67
2022/09/09 03:11:16;;;;;;;9.55;5.72;;;14.50;99.90;;;;;;5129606;28;20046;-65
2022/09/09 03:13:42;;;;;;;7.68;5.63;;;14.40;99.90;;;;;;5129851;28;20426;-66
2022/09/09 03:16:07;;;;;;;7.60;5.20;;;14.40;99.90;;;;;;5129777;28;20118;-66
2022/09/09 03:18:34;;;;;;;6.10;4.97;;;14.40;99.90;;;;;;5129898;28;20074;-65
2022/09/09 03:21:00;;;;;;;7.55;5.30;;;14.40;99.90;;;;;;5129646;28;20068;-67
2022/09/09 03:23:26;;;;;;;8.20;5.88;;;14.40;99.90;;;;;;5129534;28;20070;-66
2022/09/09 03:25:52;;;;;;;6.95;5.53;;;14.40;99.90;;;;;;5129326;28;20032;-67
2022/09/09 03:28:18;;;;;;;6.07;5.30;;;14.40;99.90;;;;;;5128082;27;20393;-68
2022/09/09 03:30:44;;;;;;;8.00;5.80;;;14.40;99.90;;;;;;5129244;28;20047;-65
2022/09/09 03:33:09;;;;;;;7.28;6.03;;;14.40;99.90;;;;;;5129414;28;20046;-68
2022/09/09 03:35:36;;;;;;;7.40;5.70;;;14.40;99.90;;;;;;5129387;28;20031;-66
2022/09/09 03:38:01;;;;;;;9.15;5.55;;;14.40;99.90;;;;;;5129184;28;20050;-66
2022/09/09 03:40:27;;;;;;;8.95;5.75;;;14.40;99.90;;;;;;5129131;28;20035;-67
2022/09/09 03:42:52;;;;;;;7.22;5.55;;;14.40;99.90;;;;;;5129336;27;20397;-67
2022/09/09 03:45:18;;;;;;;7.72;5.53;;;14.40;99.90;;;;;;5129418;27;20050;-67
2022/09/09 03:47:44;;;;;;;7.95;5.57;;;14.40;99.90;;;;;;5090682;28;1106287;-67
2022/09/09 03:50:10;;;;;;;6.90;5.53;;;14.40;99.90;;;;;;5130188;28;20050;-66
2022/09/09 03:52:37;;;;;;;9.07;5.57;;;14.40;99.90;;;;;;5112531;28;20063;-65
2022/09/09 03:55:04;;;;;;;6.40;5.13;;;14.40;99.90;;;;;;5129882;28;20075;-65
2022/09/09 03:57:30;;;;;;;9.02;5.47;;;14.40;99.90;;;;;;5129918;28;20088;-65
2022/09/09 03:59:55;;;;;;;7.55;5.43;;;14.40;99.90;;;;;;5129766;28;20114;-65
2022/09/09 04:02:21;;;;;;;6.82;5.40;;;14.40;99.90;;;;;;5129910;28;20035;-65
2022/09/09 04:04:47;;;;;;;8.40;5.30;;;14.40;99.90;;;;;;5129906;28;20070;-65
2022/09/09 04:07:13;;;;;;;6.57;5.78;;;14.30;99.90;;;;;;5129841;28;20035;-66
2022/09/09 04:09:38;;;;;;;9.63;6.10;;;14.30;99.90;;;;;;5129909;28;20043;-66
2022/09/09 04:12:04;;;;;;;6.70;5.85;;;14.30;99.90;;;;;;5130948;28;20035;-68
2022/09/09 04:14:30;;;;;;;7.38;6.35;;;14.20;99.90;;;;;;5129769;28;20032;-68
2022/09/09 04:16:57;;;;;;;9.63;6.90;;;14.20;99.90;;;;;;5129991;28;20482;-66
2022/09/09 04:19:22;;;;;;;8.27;6.68;;;14.20;99.90;;;;;;5129638;28;20043;-67
2022/09/09 04:21:50;;;;;;;10.07;7.32;;;14.20;99.90;;;;;;5131112;27;20389;-66
2022/09/09 04:24:16;;;;;;;11.30;7.88;;;14.20;99.90;;;;;;5130268;28;20673;-68
2022/09/09 04:26:41;;;;;;;11.95;7.65;;;14.20;99.90;;;;;;5129988;28;20122;-68
2022/09/09 04:29:07;;;;;;;9.25;8.10;;;14.20;99.90;;;;;;5129839;28;20051;-66
2022/09/09 04:31:33;;;;;;;9.70;7.60;;;14.20;99.90;;;;;;5129577;27;20055;-67
2022/09/09 04:34:04;;;;;;;11.30;8.13;;;14.10;99.90;;;;;;5129743;28;20114;-67
2022/09/09 04:36:31;;;;;;;10.95;8.73;;;14.10;99.90;;;;;;5112392;28;20035;-65
2022/09/09 04:38:57;;;;;;;11.23;8.60;;;14.10;99.90;;;;;;5130137;27;20505;-66
2022/09/09 04:41:23;;;;;;;11.30;8.68;;;14.10;99.90;;;;;;5133239;27;20070;-69
2022/09/09 04:43:49;;;;;;;9.52;8.60;;;14.10;99.90;;;;;;5133327;27;20084;-69
2022/09/09 04:46:18;;;;;;;10.88;8.25;;;14.10;99.90;;;;;;5133280;27;20038;-66
2022/09/09 04:48:44;;;;;;;10.05;8.23;;;14.10;99.90;;;;;;5133179;27;20054;-66
2022/09/09 04:51:13;;;;;;;10.43;8.25;;;14.00;99.90;;;;;;5132988;27;20118;-66
2022/09/09 04:53:40;;;;;;;8.75;7.43;;;14.00;99.90;;;;;;5132993;27;20028;-65
2022/09/09 04:56:14;;;;;;;11.07;7.65;;;14.00;99.90;;;;;;5132854;27;20043;-66
2022/09/09 04:58:44;;;;;;;10.43;6.72;;;14.00;99.90;;;;;;5133191;27;20105;-67
2022/09/09 05:01:19;;;;;;;9.25;7.35;;;14.00;99.90;;;;;;5133130;27;20047;-66
2022/09/09 05:03:45;;;;;;;8.15;7.03;;;14.00;99.90;;;;;;5132997;27;20039;-67
2022/09/09 05:06:14;;;;;;;12.05;7.72;;;14.00;99.90;;;;;;5132617;27;20036;-68
2022/09/09 05:08:41;;;;;;;8.50;6.70;;;13.90;99.90;;;;;;5132955;27;20427;-66
2022/09/09 05:11:18;;;;;;;9.80;7.68;;;13.90;99.90;;;;;;5132741;27;20043;-67
2022/09/09 05:13:45;;;;;;;9.07;7.20;;;13.90;99.90;;;;;;5133898;27;20540;-66
2022/09/09 05:16:11;;;;;;;9.32;7.45;;;13.90;99.90;;;;;;5132446;27;20043;-68
2022/09/09 05:18:42;;;;;;;8.55;7.20;;;13.90;99.90;;;;;;5132373;27;20036;-68
2022/09/09 05:21:09;;;;;;;9.93;7.57;;;13.80;99.90;;;;;;5132624;27;20043;-67
2022/09/09 05:23:35;;;;;;;7.78;6.93;;;13.90;99.90;;;;;;5132260;27;20101;-67
2022/09/09 05:26:00;;;;;;;9.32;7.18;;;13.90;99.90;;;;;;5132500;27;20083;-66
2022/09/09 05:28:27;;;;;;;9.90;7.18;;;13.80;99.90;;;;;;5132328;27;20498;-67
2022/09/09 05:31:04;;;;;;;14.25;8.05;;;13.80;99.90;;;;;;5132632;27;20068;-67
2022/09/09 05:33:31;;;;;;;10.20;7.05;;;13.80;99.90;;;;;;5132353;27;20505;-67
2022/09/09 05:35:58;;;;;;;10.35;7.05;;;13.80;99.90;;;;;;5132020;27;20035;-66
2022/09/09 05:38:25;;;;;;;9.65;7.68;;;13.90;99.90;;;;;;5132092;27;20172;-66
2022/09/09 05:40:52;;;;;;;12.13;7.78;;;13.80;99.90;;;;;;5132275;27;20039;-67
2022/09/09 05:43:19;;;;;;;9.13;7.13;;;13.80;99.90;;;;;;5114944;27;20039;-68
2022/09/09 05:45:58;;;;;;;12.50;8.40;;;13.80;99.90;;;;;;5132003;27;20039;-67
2022/09/09 05:48:23;;;;;;;8.63;7.30;;;13.90;99.90;;;;;;5131558;27;20055;-66
2022/09/09 05:50:54;;;;;;;13.35;7.80;;;13.80;99.90;;;;;;5131244;27;20501;-65
2022/09/09 05:53:20;;;;;;;9.73;7.88;;;13.80;99.90;;;;;;5132258;27;20520;-68
2022/09/09 05:55:45;;;;;;;12.35;8.20;;;13.80;99.90;;;;;;5131706;27;20035;-66
2022/09/09 05:58:11;;;;;;;9.50;7.10;;;13.80;99.90;;;;;;5132011;27;20079;-66
2022/09/09 06:00:37;;;;;;;9.80;7.15;;;13.80;99.90;;;;;;5131509;27;20043;-65
2022/09/09 06:03:03;;;;;;;8.98;7.38;;;13.80;99.90;;;;;;5132078;27;20031;-67
2022/09/09 06:05:30;;;;;;;11.10;7.80;;;13.90;99.90;;;;;;5131531;27;20035;-67
2022/09/09 06:07:55;;;;;;;9.77;7.35;;;13.80;99.90;;;;;;5131806;27;20027;-66
2022/09/09 06:10:22;;;;;;;9.88;7.43;;;13.90;99.90;;;;;;5131735;27;20096;-65
2022/09/09 06:12:47;;;;;;;9.40;7.88;;;13.90;99.90;;;;;;5110886;28;20063;-67
2022/09/09 06:15:13;;;;;;;8.25;7.15;;;13.90;99.90;;;;;;5112181;28;20070;-68
2022/09/09 06:17:38;;;;;;;8.50;6.95;;;13.90;99.90;;;;;;5112699;27;20512;-66
2022/09/09 06:20:05;;;;;;;9.18;7.32;;;14.00;99.90;;;;;;5131246;27;20072;-67
2022/09/09 06:22:31;;;;;;;8.93;6.93;;;14.00;99.90;;;;;;5131166;27;20367;-66
2022/09/09 06:24:56;;;;;;;10.85;7.28;;;14.00;99.90;;;;;;5113911;27;20112;-69
2022/09/09 06:27:22;;;;;;;9.60;7.20;;;14.00;99.90;;;;;;5131363;27;20035;-68
2022/09/09 06:29:48;;;;;;;8.60;7.22;;;14.00;99.90;;;;;;5130799;27;20047;-67
2022/09/09 06:32:13;;;;;;;8.65;7.38;;;14.00;99.90;;;;;;5131533;27;20058;-68
2022/09/09 06:34:39;;;;;;;8.27;7.40;;;14.10;99.90;;;;;;5131038;27;20039;-66
2022/09/09 06:37:06;;;;;;;7.95;7.18;;;14.10;99.90;;;;;;5131081;27;20069;-66
2022/09/09 06:39:32;;;;;;;11.32;7.80;;;14.10;99.90;;;;;;5130958;27;20402;-68
2022/09/09 06:41:58;;;;;;;9.38;7.93;;;14.20;99.90;;;;;;5130718;27;20034;-68
2022/09/09 06:44:26;;;;;;;7.60;6.57;;;14.20;99.90;;;;;;5130922;27;20031;-66
2022/09/09 06:46:52;;;;;;;8.00;7.18;;;14.30;99.90;;;;;;5130756;27;20043;-68
2022/09/09 06:49:18;;;;;;;9.13;6.90;;;14.30;99.90;;;;;;5130793;27;20043;-67
2022/09/09 06:51:43;;;;;;;10.45;7.07;;;14.30;99.90;;;;;;5113444;27;20055;-66
2022/09/09 06:54:10;;;;;;;11.55;7.20;;;14.30;99.90;;;;;;5113411;27;20481;-66
2022/09/09 06:56:43;;;;;;;10.45;7.10;;;14.30;99.90;;;;;;5130511;27;20043;-67
2022/09/09 06:59:09;;;;;;;11.07;7.07;;;14.40;99.90;;;;;;5130559;27;20047;-67
2022/09/09 07:01:51;;;;;;;8.43;6.60;;;14.50;99.90;;;;;;5130704;27;20397;-66
2022/09/09 07:04:17;;;;;;;10.30;6.88;;;14.50;99.90;;;;;;5130566;27;20037;-68
2022/09/09 07:06:45;;;;;;;9.40;6.50;;;14.60;99.90;;;;;;5130382;27;20481;-67
2022/09/09 07:09:14;;;;;;;12.15;7.03;;;14.60;99.90;;;;;;5130424;27;20046;-67
2022/09/09 07:11:45;;;;;;;12.50;6.32;;;14.70;99.90;;;;;;5130583;27;20070;-66
2022/09/09 07:14:13;;;;;;;7.35;6.53;;;14.90;99.90;;;;;;5130438;27;20046;-67
2022/09/09 07:16:43;;;;;;;8.25;5.50;;;15.20;99.90;;;;;;5130507;27;20035;-64
2022/09/09 07:19:08;;;;;;;9.00;6.40;;;15.40;99.90;;;;;;5130420;27;20039;-66
2022/09/09 07:21:34;;;;;;;11.15;6.00;;;15.50;99.90;;;;;;5113206;28;20126;-67
2022/09/09 07:24:01;;;;;;;8.50;6.50;;;15.60;99.90;;;;;;5127416;27;20513;-68
2022/09/09 07:26:29;;;;;;;9.75;6.00;;;15.80;99.90;;;;;;5130735;27;20592;-67
2022/09/09 07:28:58;;;;;;;10.20;5.57;;;15.90;99.90;;;;;;5130235;27;20096;-66
2022/09/09 07:31:27;;;;;;;6.70;5.05;;;16.00;99.90;;;;;;5130247;28;20039;-68
2022/09/09 07:33:53;;;;;;;8.23;5.78;;;16.10;99.90;;;;;;5112855;28;20035;-68
2022/09/09 07:36:25;;;;;;;7.93;5.18;;;16.10;99.90;;;;;;5131402;27;20053;-67
2022/09/09 07:38:56;;;;;;;9.25;6.07;;;16.20;99.90;;;;;;5130221;28;20503;-68
2022/09/09 07:41:30;;;;;;;7.10;5.25;;;16.40;99.90;;;;;;5130043;28;20037;-68
2022/09/09 07:43:55;;;;;;;8.85;5.20;;;16.50;99.90;;;;;;5112979;28;20077;-66
2022/09/09 07:46:23;;;;;;;6.57;4.88;;;16.60;99.90;;;;;;5130199;28;20066;-67
2022/09/09 07:48:54;;;;;;;12.07;5.25;;;16.70;99.90;;;;;;5129836;28;20031;-67
2022/09/09 07:51:26;;;;;;;10.00;5.03;;;16.90;99.90;;;;;;5130068;28;20075;-66
2022/09/09 07:53:57;;;;;;;11.55;4.80;;;16.90;99.90;;;;;;5129882;28;20039;-69
2022/09/09 07:56:24;;;;;;;7.35;4.43;;;16.90;99.90;;;;;;5129956;28;20220;-65
2022/09/09 07:58:52;;;;;;;8.32;4.20;;;16.90;99.90;;;;;;5129991;28;20082;-67
2022/09/09 08:01:19;;;;;;;6.97;4.40;;;16.90;99.90;;;;;;5129785;28;20032;-66
2022/09/09 08:03:46;;;;;;;9.18;4.38;;;16.90;99.90;;;;;;5129851;28;20113;-68
2022/09/09 08:06:13;;;;;;;7.25;3.72;;;17.00;99.90;;;;;;5129697;28;20031;-67
2022/09/09 08:08:43;;;;;;;7.70;4.20;;;17.00;99.90;;;;;;5131362;27;20026;-67
2022/09/09 08:11:12;;;;;;;7.57;3.78;;;17.00;99.90;;;;;;5130002;28;20393;-67
2022/09/09 08:13:38;;;;;;;9.43;4.03;;;17.00;99.90;;;;;;5129860;27;20169;-67
2022/09/09 08:16:13;;;;;;;8.90;3.92;;;17.00;99.90;;;;;;5133577;27;20387;-66
2022/09/09 08:18:39;;;;;;;7.80;3.95;;;17.10;99.90;;;;;;5133649;27;20110;-66
2022/09/09 08:21:14;;;;;;;7.53;3.95;;;17.30;99.90;;;;;;5115650;27;20047;-67
2022/09/09 08:23:41;;;;;;;11.07;4.18;;;17.40;99.90;;;;;;5116205;27;20047;-68
2022/09/09 08:26:11;;;;;;;7.57;3.63;;;17.50;99.90;;;;;;5134684;27;20473;-66
2022/09/09 08:28:37;;;;;;;9.32;3.58;;;17.60;99.90;;;;;;5115793;27;20085;-67
2022/09/09 08:31:16;;;;;;;8.65;3.75;;;17.60;99.90;;;;;;5133491;27;20035;-65
2022/09/09 08:33:43;;;;;;;9.15;3.80;;;17.50;99.90;;;;;;5133395;27;20041;-65
2022/09/09 08:36:11;;;;;;;8.23;3.15;;;17.40;99.90;;;;;;5116059;27;20039;-68
2022/09/09 08:38:37;;;;;;;10.13;3.30;;;17.40;99.90;;;;;;5133600;27;20039;-65
2022/09/09 08:41:51;;;;;;;12.52;3.60;;;17.40;99.90;;;;;;5132987;27;20473;-68
2022/09/09 08:44:27;;;;;;;7.20;3.63;;;17.40;99.90;;;;;;5123947;27;20051;-67
2022/09/09 08:46:59;;;;;;;9.32;3.55;;;17.40;99.90;;;;;;5133196;27;20417;-65
2022/09/09 08:49:46;;;;;;;8.15;3.38;;;17.30;99.90;;;;;;5132840;27;20107;-66
2022/09/09 08:52:19;;;;;;;8.75;3.22;;;17.40;99.90;;;;;;5132942;27;20039;-67
2022/09/09 08:54:46;;;;;;;8.45;3.53;;;17.40;99.90;;;;;;5133248;27;20131;-66
2022/09/09 08:57:21;;;;;;;9.98;3.30;;;17.50;99.90;;;;;;5133211;27;20396;-68
2022/09/09 08:59:48;;;;;;;8.63;3.70;;;17.70;99.90;;;;;;5132691;27;20039;-67
2022/09/09 09:02:49;;;;;;;8.55;3.50;;;17.90;99.90;;;;;;5133079;27;20755;-66
2022/09/09 09:05:29;;;;;;;8.57;3.20;;;18.00;99.90;;;;;;5132673;27;20401;-67
2022/09/09 09:08:13;;;;;;;7.65;2.85;;;17.90;99.90;;;;;;5133080;27;20445;-68
2022/09/09 09:10:50;;;;;;;8.00;2.95;;;17.90;99.90;;;;;;5132516;27;20039;-68
2022/09/09 09:13:43;;;;;;;10.43;3.63;;;17.80;99.90;;;;;;5115566;27;20409;-66
2022/09/09 09:16:29;;;;;;;;;;;17.70;99.90;;;;;;5132885;27;20039;-67
2022/09/09 09:18:55;;;;;;;8.45;2.83;;;17.80;99.90;;;;;;5132497;27;19919;-66
2022/09/09 09:21:39;;;;;;;8.20;3.35;;;17.80;99.90;;;;;;5132331;27;20062;-68
2022/09/09 09:24:19;;;;;;;8.10;2.80;;;17.90;99.90;;;;;;5132615;27;20046;-67
2022/09/09 09:26:46;;;;;;;8.88;3.38;;;17.90;99.90;;;;;;5132169;27;20035;-66
2022/09/09 09:29:18;;;;;;;9.13;3.33;;;17.90;99.90;;;;;;5132185;27;20493;-67
2022/09/09 09:31:56;;;;;;;7.45;2.60;;;17.90;99.90;;;;;;5132221;27;20046;-67
2022/09/09 09:34:24;;;;;;;8.57;2.65;;;17.90;99.90;;;;;;5114516;27;20134;-68
2022/09/09 09:36:55;;;;;;;7.65;2.95;;;18.00;99.90;;;;;;5132425;27;20047;-67
2022/09/09 09:39:25;;;;;;;7.97;2.60;;;18.10;99.90;;;;;;5131862;27;20069;-68
2022/09/09 09:41:52;;;;;;;8.10;2.92;;;18.10;99.90;;;;;;5132122;27;20046;-69
2022/09/09 09:44:30;;;;;;;6.45;2.85;;;18.30;99.90;;;;;;5132079;27;20031;-66
2022/09/09 09:47:19;;;;;;;7.13;2.72;;;18.30;99.90;;;;;;5131876;27;20047;-68
2022/09/09 09:49:56;;;;;;;8.30;2.78;;;18.20;99.90;;;;;;5131797;27;20093;-65
2022/09/09 09:52:25;;;;;;;10.32;2.55;;;18.30;99.90;;;;;;5132024;27;20051;-68
2022/09/09 09:54:52;;;;;;;8.63;2.40;;;18.40;99.90;;;;;;5131892;27;20125;-67
2022/09/09 09:57:23;;;;;;;7.13;2.20;;;18.50;99.90;;;;;;5131542;27;20368;-64
2022/09/09 09:59:49;;;;;;;7.13;2.47;;;18.60;99.90;;;;;;5131486;27;20043;-67
2022/09/09 10:02:18;;;;;;;6.75;2.78;;;18.80;99.90;;;;;;5131890;27;20396;-65
2022/09/09 10:04:45;;;;;;;8.07;2.38;;;18.80;99.90;;;;;;5131440;27;20031;-66
2022/09/09 10:07:22;;;;;;;10.20;2.05;;;18.90;99.90;;;;;;5131859;27;20075;-66
2022/09/09 10:09:54;;;;;;;8.55;2.20;;;18.80;99.90;;;;;;5131524;27;20064;-67
2022/09/09 10:12:43;;;;;;;6.70;2.10;;;18.70;99.90;;;;;;5131858;27;20508;-68
2022/09/09 10:15:28;;;;;;;5.88;1.90;;;18.60;99.90;;;;;;5131559;27;20420;-65
2022/09/09 10:18:09;;;;;;;5.82;1.70;;;18.90;99.90;;;;;;5131589;27;20448;-67
2022/09/09 10:20:40;;;;;;;7.28;1.70;;;19.00;99.90;;;;;;5131118;27;20076;-70
2022/09/09 10:23:19;;;;;;;5.65;2.10;;;18.90;99.90;;;;;;5132633;27;20043;-69
2022/09/09 10:26:01;;;;;;;8.70;2.63;;;18.90;99.90;;;;;;5131005;27;20043;-66
2022/09/09 10:28:43;;;;;;;9.55;2.95;;;18.80;99.90;;;;;;5113719;27;20435;-68
2022/09/09 10:31:14;;;;;;;6.13;2.00;;;18.70;99.90;;;;;;5131370;27;20039;-67
2022/09/09 10:33:59;;;;;;;7.20;1.90;;;18.60;99.90;;;;;;5130755;27;20042;-67
2022/09/09 10:36:26;;;;;;;9.50;2.35;;;18.40;99.90;;;;;;5113689;27;20292;-64
2022/09/09 10:39:13;;;;;;;4.80;1.90;;;18.30;99.90;;;;;;5130261;27;20171;-67
2022/09/09 10:41:51;;;;;;;8.45;2.20;;;18.20;99.90;;;;;;5130871;27;20118;-64
2022/09/09 10:44:34;;;;;;;7.38;1.63;;;18.20;99.90;;;;;;5113302;27;20154;-66
2022/09/09 10:47:13;;;;;;;6.45;1.80;;;18.20;99.90;;;;;;5127926;27;20051;-66
2022/09/09 10:50:13;;;;;;;6.78;1.80;;;18.20;99.90;;;;;;5132020;27;20084;-68
2022/09/09 10:53:17;;;;;;;9.02;2.25;;;18.20;99.90;;;;;;5123380;27;20047;-67
2022/09/09 10:55:51;;;;;;;13.35;2.17;;;18.30;99.90;;;;;;5130774;27;20046;-67
2022/09/09 10:58:34;;;;;;;8.63;1.80;;;18.50;99.90;;;;;;5130697;27;20115;-66
2022/09/09 11:01:09;;;;;;;7.55;1.70;;;18.60;99.90;;;;;;5130514;27;20382;-67
2022/09/09 11:03:37;;;;;;;8.05;1.75;;;18.60;99.90;;;;;;5130409;27;20049;-66
2022/09/09 11:06:17;;;;;;;5.30;1.60;;;18.50;99.90;;;;;;5130434;27;20100;-65
2022/09/09 11:08:42;;;;;;;6.75;2.17;;;18.40;99.90;;;;;;5130515;27;20071;-65
2022/09/09 11:11:21;;;;;;;5.55;1.75;;;18.30;99.90;;;;;;5130281;27;20078;-68
2022/09/09 11:13:58;;;;;;;7.47;1.70;;;18.30;99.90;;;;;;5130550;27;20043;-67
2022/09/09 11:16:25;;;;;;;7.72;2.08;;;18.20;99.90;;;;;;5130473;27;20132;-66
2022/09/09 11:19:04;;;;;;;8.85;1.77;;;18.10;99.90;;;;;;5130150;27;20089;-67
2022/09/09 11:21:37;;;;;;;6.25;2.13;;;18.00;99.90;;;;;;5130450;27;20180;-68
2022/09/09 11:24:09;;;;;;;5.78;1.60;;;18.10;99.90;;;;;;5130365;27;20575;-67
2022/09/09 11:26:41;;;;;;;;;;;18.20;99.90;;;;;;5113528;28;20139;-66
2022/09/09 11:29:30;;;;;;;12.47;2.20;;;18.30;99.90;;;;;;5130230;28;20017;-67
2022/09/09 11:31:56;;;;;;;8.23;2.42;;;18.30;99.90;;;;;;5129962;27;20035;-66
2022/09/09 11:34:56;;;;;;;5.28;1.80;;;18.40;99.90;;;;;;5130110;28;20043;-66
2022/09/09 11:37:32;;;;;;;6.72;1.98;;;18.50;99.90;;;;;;5130147;27;20051;-66
2022/09/09 11:40:16;;;;;;;8.45;1.58;;;18.60;99.90;;;;;;5130085;28;20508;-67
2022/09/09 11:42:42;;;;;;;6.88;1.80;;;18.80;99.90;;;;;;5130335;28;20034;-66
2022/09/09 11:45:21;;;;;;;5.22;1.85;;;19.00;99.90;;;;;;5129698;28;20101;-66
2022/09/09 11:47:55;;;;;;;9.48;2.45;;;19.20;99.90;;;;;;5129814;28;20051;-67
2022/09/09 11:50:21;;;;;;;6.60;1.48;;;19.30;99.90;;;;;;5132724;27;20039;-67
2022/09/09 11:52:49;;;;;;;5.88;1.90;;;19.40;99.90;;;;;;5134250;27;20046;-66
2022/09/09 11:55:33;;;;;;;5.50;2.00;;;19.70;99.90;;;;;;5134114;27;20039;-68
2022/09/09 11:58:04;;;;;;;7.93;1.92;;;19.80;99.90;;;;;;5134019;27;20504;-67
2022/09/09 12:00:36;;;;;;;5.47;1.80;;;19.80;99.90;;;;;;5133282;27;20076;-66
2022/09/09 12:03:03;;;;;;;8.77;1.88;;;19.80;99.90;;;;;;5133908;27;20035;-67
2022/09/09 12:05:42;;;;;;;9.32;2.03;;;19.80;99.90;;;;;;5133997;27;20074;-68
2022/09/09 12:08:11;;;;;;;6.40;1.88;;;19.80;99.90;;;;;;5134047;27;20072;-67
2022/09/09 12:10:40;;;;;;;6.20;1.75;;;19.70;99.90;;;;;;5116875;27;20156;-65
2022/09/09 12:13:26;;;;;;;7.20;1.77;;;19.60;99.90;;;;;;5134052;27;20566;-67
2022/09/09 12:15:57;;;;;;;4.70;1.50;;;19.60;99.90;;;;;;5133639;27;20385;-66
2022/09/09 12:18:31;;;;;;;9.00;2.05;;;19.60;99.90;;;;;;5133713;27;20051;-68
2022/09/09 12:21:18;;;;;;;6.30;1.63;;;19.80;99.90;;;;;;5116286;27;20551;-66
2022/09/09 12:23:54;;;;;;;4.60;1.60;;;19.90;99.90;;;;;;5134153;27;20428;-66
2022/09/09 12:26:54;;;;;;;8.43;1.83;;;19.90;99.90;;;;;;5133644;27;20062;-68
2022/09/09 12:29:40;;;;;;;4.95;1.48;;;19.80;99.90;;;;;;5133501;27;20035;-67
2022/09/09 12:32:20;;;;;;;7.82;1.65;;;19.50;99.90;;;;;;5133370;27;20067;-68
2022/09/09 12:35:24;;;;;;;9.57;1.80;;;19.30;99.90;;;;;;5133983;27;20126;-67
2022/09/09 12:37:58;;;;;;;6.18;1.60;;;19.00;99.90;;;;;;5133420;27;20039;-67
2022/09/09 12:40:27;;;;;;;6.50;1.95;;;18.90;99.90;;;;;;5133243;27;20027;-67
2022/09/09 12:42:55;;;;;;;6.85;1.98;;;19.00;99.90;;;;;;5133539;27;20495;-67
2022/09/09 12:45:32;;;;;;;6.00;1.35;;;19.00;99.90;;;;;;5133063;27;20035;-66
2022/09/09 12:48:02;;;;;;;8.60;1.70;;;19.00;99.90;;;;;;5133119;27;20224;-66
2022/09/09 12:50:30;;;;;;;3.60;1.17;;;19.10;99.90;;;;;;5133159;27;20043;-66
2022/09/09 12:53:07;;;;;;;4.30;1.27;;;19.20;99.90;;;;;;5133177;27;20077;-66
2022/09/09 12:55:37;;;;;;;5.07;1.45;;;19.20;99.90;;;;;;5115381;27;20054;-66
2022/09/09 12:58:05;;;;;;;3.08;1.10;;;19.20;99.90;;;;;;5132891;27;20151;-66
2022/09/09 13:00:32;;;;;;;4.82;1.30;;;19.10;99.90;;;;;;5132437;27;20081;-67
2022/09/09 13:03:01;;;;;;;3.70;1.00;;;19.10;99.90;;;;;;5133003;27;20039;-68
2022/09/09 13:05:38;;;;;;;4.80;1.17;;;19.10;99.90;;;;;;5132735;27;20077;-68
2022/09/09 13:08:12;;;;;;;6.25;1.08;;;19.20;99.90;;;;;;5133093;27;20083;-65
2022/09/09 13:10:42;;;;;;;5.55;1.40;;;19.20;99.90;;;;;;5132740;27;20071;-69
2022/09/09 13:13:20;;;;;;;5.45;1.30;;;19.20;99.90;;;;;;5115302;27;20552;-67